createdAt,value
2019-03-21T00:00:03.461Z,1028.93
2019-03-21T00:01:03.410Z,1028.94
2019-03-21T00:02:03.430Z,1028.99
2019-03-21T00:03:03.317Z,1029.00
2019-03-21T00:04:03.268Z,1029.01
2019-03-21T00:05:03.225Z,1029.01
2019-03-21T00:06:03.174Z,1029.05
2019-03-21T00:07:03.126Z,1029.04
2019-03-21T00:08:03.081Z,1029.10
2019-03-21T00:09:03.031Z,1029.06
2019-03-21T00:10:02.986Z,1029.08
2019-03-21T00:11:03.041Z,1029.06
2019-03-21T00:12:02.895Z,1029.09
2019-03-21T00:13:02.844Z,1029.06
2019-03-21T00:14:06.902Z,1029.07
2019-03-21T00:15:03.066Z,1029.04
2019-03-21T00:16:02.700Z,1029.01
2019-03-21T00:17:02.657Z,1029.02
2019-03-21T00:18:02.606Z,1029.03
2019-03-21T00:19:02.560Z,1029.00
2019-03-21T00:20:02.513Z,1029.01
2019-03-21T00:21:02.465Z,1029.01
2019-03-21T00:22:02.420Z,1029.02
2019-03-21T00:23:02.371Z,1029.00
2019-03-21T00:24:02.325Z,1029.01
2019-03-21T00:25:02.277Z,1029.02
2019-03-21T00:26:02.229Z,1029.02
2019-03-21T00:27:02.182Z,1029.05
2019-03-21T00:28:02.135Z,1029.06
2019-03-21T00:29:02.089Z,1029.07
2019-03-21T00:30:02.042Z,1029.05
2019-03-21T00:31:01.993Z,1029.07
2019-03-21T00:32:01.947Z,1029.06
2019-03-21T00:33:01.899Z,1029.05
2019-03-21T00:34:01.851Z,1029.06
2019-03-21T00:35:01.804Z,1029.06
2019-03-21T00:36:01.756Z,1029.04
2019-03-21T00:37:01.710Z,1029.07
2019-03-21T00:38:01.662Z,1029.04
2019-03-21T00:39:01.615Z,1029.03
2019-03-21T00:40:01.572Z,1029.03
2019-03-21T00:41:01.525Z,1029.06
2019-03-21T00:42:01.471Z,1029.06
2019-03-21T00:43:01.428Z,1029.05
2019-03-21T00:44:01.380Z,1029.02
2019-03-21T00:45:01.332Z,1029.03
2019-03-21T00:46:01.285Z,1029.04
2019-03-21T00:47:01.236Z,1029.05
2019-03-21T00:48:01.191Z,1029.02
2019-03-21T00:49:01.144Z,1029.08
2019-03-21T00:50:01.094Z,1029.08
2019-03-21T00:51:01.047Z,1029.07
2019-03-21T00:52:01.001Z,1029.04
2019-03-21T00:53:01.003Z,1029.04
2019-03-21T00:54:00.905Z,1029.05
2019-03-21T00:55:00.858Z,1029.01
2019-03-21T00:56:00.812Z,1029.02
2019-03-21T00:57:00.764Z,1029.04
2019-03-21T00:58:00.719Z,1029.00
2019-03-21T00:59:00.669Z,1029.02
2019-03-21T01:00:00.634Z,1028.99
2019-03-21T01:01:00.576Z,1029.01
2019-03-21T01:02:00.526Z,1029.00
2019-03-21T01:03:00.480Z,1029.05
2019-03-21T01:04:00.434Z,1029.02
2019-03-21T01:05:00.406Z,1029.01
2019-03-21T01:06:00.339Z,1029.03
2019-03-21T01:07:00.292Z,1028.99
2019-03-21T01:08:00.244Z,1028.99
2019-03-21T01:09:00.197Z,1028.94
2019-03-21T01:10:00.150Z,1028.96
2019-03-21T01:11:00.105Z,1028.95
2019-03-21T01:12:00.054Z,1028.92
2019-03-21T01:13:00.010Z,1028.94
2019-03-21T01:13:59.959Z,1028.94
2019-03-21T01:14:59.912Z,1028.94
2019-03-21T01:15:59.866Z,1028.96
2019-03-21T01:16:59.819Z,1028.94
2019-03-21T01:17:59.773Z,1028.98
2019-03-21T01:18:59.723Z,1029.01
2019-03-21T01:19:59.676Z,1028.97
2019-03-21T01:20:59.628Z,1029.01
2019-03-21T01:21:59.594Z,1029.00
2019-03-21T01:22:59.535Z,1028.96
2019-03-21T01:23:59.487Z,1029.00
2019-03-21T01:24:59.440Z,1029.02
2019-03-21T01:25:59.393Z,1029.00
2019-03-21T01:26:59.350Z,1028.98
2019-03-21T01:27:59.298Z,1028.97
2019-03-21T01:28:59.251Z,1028.98
2019-03-21T01:29:59.521Z,1028.97
2019-03-21T01:30:59.158Z,1028.98
2019-03-21T01:31:59.113Z,1028.97
2019-03-21T01:32:59.062Z,1028.93
2019-03-21T01:33:59.014Z,1028.99
2019-03-21T01:34:58.967Z,1028.90
2019-03-21T01:35:58.920Z,1028.86
2019-03-21T01:36:58.873Z,1028.86
2019-03-21T01:37:58.825Z,1028.87
2019-03-21T01:38:58.777Z,1028.84
2019-03-21T01:39:58.732Z,1028.80
2019-03-21T01:40:58.683Z,1028.85
2019-03-21T01:41:58.636Z,1028.80
2019-03-21T01:42:58.593Z,1028.80
2019-03-21T01:43:58.544Z,1028.76
2019-03-21T01:44:58.494Z,1028.75
2019-03-21T01:45:58.446Z,1028.75
2019-03-21T01:46:58.400Z,1028.78
2019-03-21T01:47:58.352Z,1028.77
2019-03-21T01:48:58.304Z,1028.79
2019-03-21T01:49:58.257Z,1028.77
2019-03-21T01:50:58.211Z,1028.78
2019-03-21T01:51:58.163Z,1028.78
2019-03-21T01:52:58.116Z,1028.76
2019-03-21T01:53:58.068Z,1028.78
2019-03-21T01:54:58.021Z,1028.77
2019-03-21T01:55:57.974Z,1028.77
2019-03-21T01:56:57.927Z,1028.76
2019-03-21T01:57:57.880Z,1028.77
2019-03-21T01:58:57.831Z,1028.77
2019-03-21T01:59:57.785Z,1028.74
2019-03-21T02:00:57.737Z,1028.72
2019-03-21T02:01:57.690Z,1028.72
2019-03-21T02:02:57.642Z,1028.71
2019-03-21T02:03:57.595Z,1028.70
2019-03-21T02:04:57.549Z,1028.68
2019-03-21T02:05:57.501Z,1028.71
2019-03-21T02:06:57.454Z,1028.66
2019-03-21T02:07:57.407Z,1028.67
2019-03-21T02:08:57.360Z,1028.63
2019-03-21T02:09:57.311Z,1028.62
2019-03-21T02:10:57.264Z,1028.63
2019-03-21T02:11:57.217Z,1028.62
2019-03-21T02:12:57.172Z,1028.60
2019-03-21T02:13:57.122Z,1028.62
2019-03-21T02:14:57.076Z,1028.60
2019-03-21T02:15:59.334Z,1028.58
2019-03-21T02:16:56.981Z,1028.60
2019-03-21T02:17:56.934Z,1028.58
2019-03-21T02:18:56.885Z,1028.59
2019-03-21T02:19:56.840Z,1028.57
2019-03-21T02:20:56.792Z,1028.55
2019-03-21T02:21:56.744Z,1028.57
2019-03-21T02:22:56.700Z,1028.55
2019-03-21T02:23:56.650Z,1028.54
2019-03-21T02:24:56.604Z,1028.53
2019-03-21T02:25:56.555Z,1028.54
2019-03-21T02:26:56.508Z,1028.55
2019-03-21T02:27:56.460Z,1028.54
2019-03-21T02:28:56.413Z,1028.56
2019-03-21T02:29:56.366Z,1028.58
2019-03-21T02:30:56.329Z,1028.52
2019-03-21T02:31:56.273Z,1028.48
2019-03-21T02:32:56.226Z,1028.52
2019-03-21T02:33:56.181Z,1028.51
2019-03-21T02:34:56.130Z,1028.52
2019-03-21T02:35:56.083Z,1028.50
2019-03-21T02:36:56.036Z,1028.54
2019-03-21T02:37:55.988Z,1028.52
2019-03-21T02:38:55.991Z,1028.54
2019-03-21T02:39:59.753Z,1028.54
2019-03-21T02:40:55.847Z,1028.51
2019-03-21T02:41:55.800Z,1028.54
2019-03-21T02:42:55.753Z,1028.52
2019-03-21T02:43:55.706Z,1028.53
2019-03-21T02:45:07.873Z,1028.51
2019-03-21T02:45:55.610Z,1028.51
2019-03-21T02:46:55.565Z,1028.47
2019-03-21T02:47:55.518Z,1028.53
2019-03-21T02:48:55.470Z,1028.47
2019-03-21T02:49:55.422Z,1028.43
2019-03-21T02:50:55.382Z,1028.44
2019-03-21T02:51:55.328Z,1028.41
2019-03-21T02:52:55.281Z,1028.43
2019-03-21T02:53:55.232Z,1028.44
2019-03-21T02:54:55.185Z,1028.50
2019-03-21T02:55:55.144Z,1028.49
2019-03-21T02:56:55.093Z,1028.52
2019-03-21T02:57:55.047Z,1028.48
2019-03-21T02:58:54.998Z,1028.49
2019-03-21T02:59:55.000Z,1028.50
2019-03-21T03:00:54.902Z,1028.49
2019-03-21T03:01:54.857Z,1028.47
2019-03-21T03:02:54.818Z,1028.50
2019-03-21T03:03:54.760Z,1028.54
2019-03-21T03:04:54.716Z,1028.54
2019-03-21T03:05:54.669Z,1028.53
2019-03-21T03:06:54.617Z,1028.52
2019-03-21T03:07:54.579Z,1028.52
2019-03-21T03:08:54.528Z,1028.51
2019-03-21T03:09:54.480Z,1028.52
2019-03-21T03:10:54.440Z,1028.53
2019-03-21T03:11:54.381Z,1028.51
2019-03-21T03:12:54.336Z,1028.53
2019-03-21T03:13:54.288Z,1028.56
2019-03-21T03:14:54.241Z,1028.55
2019-03-21T03:15:54.214Z,1028.54
2019-03-21T03:16:54.146Z,1028.52
2019-03-21T03:17:54.097Z,1028.52
2019-03-21T03:18:54.051Z,1028.56
2019-03-21T03:19:54.003Z,1028.59
2019-03-21T03:20:53.956Z,1028.58
2019-03-21T03:21:54.008Z,1028.61
2019-03-21T03:22:53.862Z,1028.55
2019-03-21T03:23:53.815Z,1028.58
2019-03-21T03:24:53.768Z,1028.60
2019-03-21T03:25:53.730Z,1028.59
2019-03-21T03:26:53.672Z,1028.62
2019-03-21T03:27:53.625Z,1028.61
2019-03-21T03:28:53.579Z,1028.57
2019-03-21T03:29:53.538Z,1028.61
2019-03-21T03:30:53.512Z,1028.63
2019-03-21T03:31:53.445Z,1028.65
2019-03-21T03:32:53.420Z,1028.62
2019-03-21T03:33:53.350Z,1028.62
2019-03-21T03:34:53.295Z,1028.62
2019-03-21T03:35:53.246Z,1028.60
2019-03-21T03:36:53.200Z,1028.66
2019-03-21T03:37:53.152Z,1028.62
2019-03-21T03:38:53.108Z,1028.62
2019-03-21T03:39:53.058Z,1028.65
2019-03-21T03:40:53.010Z,1028.62
2019-03-21T03:41:52.969Z,1028.66
2019-03-21T03:42:52.916Z,1028.61
2019-03-21T03:43:52.869Z,1028.65
2019-03-21T03:44:52.822Z,1028.64
2019-03-21T03:45:52.777Z,1028.63
2019-03-21T03:46:52.727Z,1028.63
2019-03-21T03:47:52.684Z,1028.65
2019-03-21T03:48:52.634Z,1028.62
2019-03-21T03:49:52.588Z,1028.63
2019-03-21T03:50:52.540Z,1028.64
2019-03-21T03:51:52.499Z,1028.62
2019-03-21T03:52:52.444Z,1028.65
2019-03-21T03:53:52.412Z,1028.61
2019-03-21T03:54:52.352Z,1028.61
2019-03-21T03:55:52.305Z,1028.60
2019-03-21T03:56:52.256Z,1028.64
2019-03-21T03:57:52.206Z,1028.65
2019-03-21T03:58:52.162Z,1028.68
2019-03-21T03:59:52.112Z,1028.66
2019-03-21T04:00:52.065Z,1028.68
2019-03-21T04:01:52.019Z,1028.71
2019-03-21T04:02:52.032Z,1028.69
2019-03-21T04:03:51.973Z,1028.70
2019-03-21T04:04:51.876Z,1028.70
2019-03-21T04:05:51.827Z,1028.68
2019-03-21T04:06:51.781Z,1028.67
2019-03-21T04:07:51.736Z,1028.64
2019-03-21T04:08:51.692Z,1028.67
2019-03-21T04:09:51.639Z,1028.65
2019-03-21T04:10:51.592Z,1028.63
2019-03-21T04:11:51.544Z,1028.67
2019-03-21T04:12:51.498Z,1028.67
2019-03-21T04:13:51.450Z,1028.71
2019-03-21T04:14:51.403Z,1028.69
2019-03-21T04:15:53.637Z,1028.70
2019-03-21T04:16:51.309Z,1028.70
2019-03-21T04:17:51.265Z,1028.73
2019-03-21T04:18:51.213Z,1028.72
2019-03-21T04:19:51.165Z,1028.76
2019-03-21T04:20:51.120Z,1028.74
2019-03-21T04:21:51.071Z,1028.74
2019-03-21T04:22:51.024Z,1028.76
2019-03-21T04:23:50.981Z,1028.75
2019-03-21T04:24:50.990Z,1028.77
2019-03-21T04:25:50.883Z,1028.76
2019-03-21T04:26:50.849Z,1028.73
2019-03-21T04:27:50.788Z,1028.72
2019-03-21T04:28:50.742Z,1028.77
2019-03-21T04:29:50.693Z,1028.69
2019-03-21T04:30:50.646Z,1028.72
2019-03-21T04:31:50.600Z,1028.74
2019-03-21T04:32:50.557Z,1028.74
2019-03-21T04:33:50.507Z,1028.74
2019-03-21T04:34:50.457Z,1028.76
2019-03-21T04:35:50.412Z,1028.76
2019-03-21T04:36:50.363Z,1028.77
2019-03-21T04:37:50.315Z,1028.78
2019-03-21T04:38:50.268Z,1028.80
2019-03-21T04:39:50.221Z,1028.79
2019-03-21T04:40:50.174Z,1028.74
2019-03-21T04:41:50.130Z,1028.75
2019-03-21T04:42:50.081Z,1028.76
2019-03-21T04:43:50.034Z,1028.72
2019-03-21T04:44:50.035Z,1028.72
2019-03-21T04:45:49.936Z,1028.70
2019-03-21T04:46:49.943Z,1028.72
2019-03-21T04:47:49.842Z,1028.75
2019-03-21T04:48:49.796Z,1028.77
2019-03-21T04:49:49.747Z,1028.80
2019-03-21T04:50:49.701Z,1028.78
2019-03-21T04:51:49.654Z,1028.78
2019-03-21T04:52:49.606Z,1028.82
2019-03-21T04:53:49.558Z,1028.79
2019-03-21T04:54:49.510Z,1028.81
2019-03-21T04:55:49.466Z,1028.79
2019-03-21T04:56:49.417Z,1028.80
2019-03-21T04:57:49.369Z,1028.85
2019-03-21T04:58:49.322Z,1028.83
2019-03-21T04:59:49.275Z,1028.84
2019-03-21T05:00:49.228Z,1028.82
2019-03-21T05:01:49.181Z,1028.81
2019-03-21T05:02:49.133Z,1028.80
2019-03-21T05:03:49.086Z,1028.83
2019-03-21T05:04:49.039Z,1028.80
2019-03-21T05:05:48.991Z,1028.81
2019-03-21T05:06:48.995Z,1028.81
2019-03-21T05:07:48.897Z,1028.81
2019-03-21T05:08:48.850Z,1028.79
2019-03-21T05:09:48.804Z,1028.79
2019-03-21T05:10:48.754Z,1028.77
2019-03-21T05:11:48.707Z,1028.78
2019-03-21T05:12:48.660Z,1028.82
2019-03-21T05:13:48.613Z,1028.81
2019-03-21T05:14:48.564Z,1028.84
2019-03-21T05:15:48.518Z,1028.84
2019-03-21T05:16:48.471Z,1028.88
2019-03-21T05:17:48.426Z,1028.86
2019-03-21T05:18:48.379Z,1028.86
2019-03-21T05:19:48.329Z,1028.90
2019-03-21T05:20:48.282Z,1028.86
2019-03-21T05:21:48.234Z,1028.86
2019-03-21T05:22:48.187Z,1028.90
2019-03-21T05:23:48.141Z,1028.87
2019-03-21T05:24:48.093Z,1028.86
2019-03-21T05:25:48.045Z,1028.83
2019-03-21T05:26:47.998Z,1028.80
2019-03-21T05:27:48.050Z,1028.81
2019-03-21T05:28:47.902Z,1028.81
2019-03-21T05:29:47.858Z,1028.76
2019-03-21T05:30:47.809Z,1028.74
2019-03-21T05:31:47.762Z,1028.77
2019-03-21T05:32:47.733Z,1028.78
2019-03-21T05:33:47.665Z,1028.75
2019-03-21T05:34:47.619Z,1028.80
2019-03-21T05:35:47.572Z,1028.80
2019-03-21T05:36:49.358Z,1028.82
2019-03-21T05:37:47.477Z,1028.81
2019-03-21T05:38:47.430Z,1028.84
2019-03-21T05:39:47.384Z,1028.86
2019-03-21T05:40:47.336Z,1028.83
2019-03-21T05:41:47.288Z,1028.85
2019-03-21T05:42:47.241Z,1028.81
2019-03-21T05:43:47.194Z,1028.81
2019-03-21T05:44:47.147Z,1028.80
2019-03-21T05:45:47.101Z,1028.77
2019-03-21T05:46:47.054Z,1028.81
2019-03-21T05:47:47.005Z,1028.83
2019-03-21T05:48:47.007Z,1028.81
2019-03-21T05:49:46.909Z,1028.80
2019-03-21T05:50:46.861Z,1028.83
2019-03-21T05:51:46.815Z,1028.84
2019-03-21T05:52:46.772Z,1028.88
2019-03-21T05:53:46.719Z,1028.89
2019-03-21T05:54:46.673Z,1028.88
2019-03-21T05:55:46.631Z,1028.89
2019-03-21T05:56:46.581Z,1028.88
2019-03-21T05:57:46.533Z,1028.91
2019-03-21T05:58:46.485Z,1028.89
2019-03-21T05:59:46.440Z,1028.92
2019-03-21T06:00:46.389Z,1028.89
2019-03-21T06:01:46.342Z,1028.92
2019-03-21T06:02:46.295Z,1028.96
2019-03-21T06:03:46.247Z,1028.98
2019-03-21T06:04:46.201Z,1028.99
2019-03-21T06:05:46.153Z,1028.97
2019-03-21T06:06:46.106Z,1028.97
2019-03-21T06:07:46.059Z,1028.99
2019-03-21T06:08:46.012Z,1028.97
2019-03-21T06:09:45.966Z,1028.99
2019-03-21T06:10:45.917Z,1028.97
2019-03-21T06:11:45.870Z,1029.01
2019-03-21T06:12:45.824Z,1029.06
2019-03-21T06:13:45.774Z,1029.04
2019-03-21T06:14:45.728Z,1029.04
2019-03-21T06:15:45.680Z,1029.04
2019-03-21T06:16:45.634Z,1029.06
2019-03-21T06:17:45.585Z,1029.09
2019-03-21T06:18:45.537Z,1029.09
2019-03-21T06:19:45.491Z,1029.10
2019-03-21T06:20:45.444Z,1029.09
2019-03-21T06:21:45.395Z,1029.10
2019-03-21T06:22:45.349Z,1029.13
2019-03-21T06:23:45.301Z,1029.13
2019-03-21T06:24:45.261Z,1029.12
2019-03-21T06:25:45.206Z,1029.15
2019-03-21T06:26:45.160Z,1029.18
2019-03-21T06:27:45.120Z,1029.15
2019-03-21T06:28:45.066Z,1029.13
2019-03-21T06:29:45.018Z,1029.14
2019-03-21T06:30:44.970Z,1029.18
2019-03-21T06:31:44.922Z,1029.16
2019-03-21T06:32:44.877Z,1029.19
2019-03-21T06:33:44.828Z,1029.19
2019-03-21T06:34:44.785Z,1029.19
2019-03-21T06:35:44.734Z,1029.21
2019-03-21T06:36:44.715Z,1029.21
2019-03-21T06:37:44.647Z,1029.22
2019-03-21T06:38:44.592Z,1029.21
2019-03-21T06:39:44.545Z,1029.23
2019-03-21T06:40:44.498Z,1029.24
2019-03-21T06:41:44.504Z,1029.28
2019-03-21T06:42:44.403Z,1029.31
2019-03-21T06:43:44.357Z,1029.36
2019-03-21T06:44:44.309Z,1029.35
2019-03-21T06:45:48.207Z,1029.34
2019-03-21T06:46:49.327Z,1029.38
2019-03-21T06:47:44.167Z,1029.38
2019-03-21T06:48:44.120Z,1029.42
2019-03-21T06:49:46.482Z,1029.41
2019-03-21T06:50:44.025Z,1029.42
2019-03-21T06:51:43.978Z,1029.42
2019-03-21T06:52:44.039Z,1029.42
2019-03-21T06:53:43.886Z,1029.40
2019-03-21T06:54:43.836Z,1029.41
2019-03-21T06:55:43.788Z,1029.37
2019-03-21T06:56:43.742Z,1029.30
2019-03-21T06:57:43.695Z,1029.34
2019-03-21T06:58:43.647Z,1029.37
2019-03-21T06:59:43.600Z,1029.43
2019-03-21T07:00:43.553Z,1029.43
2019-03-21T07:01:43.505Z,1029.43
2019-03-21T07:02:43.469Z,1029.44
2019-03-21T07:03:43.410Z,1029.47
2019-03-21T07:04:43.364Z,1029.46
2019-03-21T07:05:43.316Z,1029.49
2019-03-21T07:06:43.269Z,1029.46
2019-03-21T07:07:43.223Z,1029.47
2019-03-21T07:08:43.175Z,1029.47
2019-03-21T07:09:43.126Z,1029.48
2019-03-21T07:10:43.080Z,1029.52
2019-03-21T07:11:43.033Z,1029.50
2019-03-21T07:12:42.986Z,1029.51
2019-03-21T07:13:42.988Z,1029.51
2019-03-21T07:14:42.891Z,1029.56
2019-03-21T07:15:42.844Z,1029.57
2019-03-21T07:16:42.797Z,1029.61
2019-03-21T07:17:42.752Z,1029.60
2019-03-21T07:18:42.701Z,1029.63
2019-03-21T07:19:42.657Z,1029.63
2019-03-21T07:20:42.608Z,1029.64
2019-03-21T07:21:42.560Z,1029.67
2019-03-21T07:22:42.512Z,1029.65
2019-03-21T07:23:42.468Z,1029.61
2019-03-21T07:24:42.419Z,1029.68
2019-03-21T07:25:42.371Z,1029.67
2019-03-21T07:26:42.325Z,1029.67
2019-03-21T07:27:42.277Z,1029.66
2019-03-21T07:28:42.229Z,1029.64
2019-03-21T07:29:42.182Z,1029.61
2019-03-21T07:30:42.135Z,1029.66
2019-03-21T07:31:42.087Z,1029.70
2019-03-21T07:32:42.040Z,1029.73
2019-03-21T07:33:41.993Z,1029.72
2019-03-21T07:34:41.995Z,1029.69
2019-03-21T07:35:41.904Z,1029.71
2019-03-21T07:36:41.853Z,1029.72
2019-03-21T07:37:41.803Z,1029.68
2019-03-21T07:38:41.758Z,1029.68
2019-03-21T07:39:41.711Z,1029.71
2019-03-21T07:40:41.668Z,1029.71
2019-03-21T07:41:41.615Z,1029.77
2019-03-21T07:42:41.568Z,1029.79
2019-03-21T07:43:41.522Z,1029.78
2019-03-21T07:44:41.475Z,1029.83
2019-03-21T07:45:41.426Z,1029.83
2019-03-21T07:46:41.381Z,1029.82
2019-03-21T07:47:41.332Z,1029.79
2019-03-21T07:48:41.293Z,1029.81
2019-03-21T07:49:41.238Z,1029.82
2019-03-21T07:50:41.192Z,1029.84
2019-03-21T07:51:41.149Z,1029.82
2019-03-21T07:52:41.097Z,1029.84
2019-03-21T07:53:41.050Z,1029.84
2019-03-21T07:54:41.001Z,1029.84
2019-03-21T07:55:40.956Z,1029.87
2019-03-21T07:56:40.909Z,1029.88
2019-03-21T07:57:40.861Z,1029.92
2019-03-21T07:58:40.817Z,1029.91
2019-03-21T07:59:40.773Z,1029.90
2019-03-21T08:00:40.719Z,1029.92
2019-03-21T08:01:40.672Z,1029.90
2019-03-21T08:02:40.624Z,1029.89
2019-03-21T08:03:40.581Z,1029.88
2019-03-21T08:04:40.534Z,1029.86
2019-03-21T08:05:40.897Z,1029.84
2019-03-21T08:06:40.436Z,1029.82
2019-03-21T08:07:40.394Z,1029.78
2019-03-21T08:08:40.343Z,1029.82
2019-03-21T08:09:40.379Z,1029.81
2019-03-21T08:10:40.263Z,1029.79
2019-03-21T08:11:40.200Z,1029.79
2019-03-21T08:12:40.154Z,1029.82
2019-03-21T08:13:40.106Z,1029.82
2019-03-21T08:14:40.062Z,1029.83
2019-03-21T08:15:40.063Z,1029.82
2019-03-21T08:16:40.016Z,1029.80
2019-03-21T08:17:39.918Z,1029.81
2019-03-21T08:18:39.871Z,1029.81
2019-03-21T08:19:39.824Z,1029.85
2019-03-21T08:20:39.778Z,1029.83
2019-03-21T08:21:39.729Z,1029.84
2019-03-21T08:22:39.683Z,1029.82
2019-03-21T08:23:39.634Z,1029.87
2019-03-21T08:24:39.588Z,1029.85
2019-03-21T08:25:39.542Z,1029.90
2019-03-21T08:26:39.493Z,1029.88
2019-03-21T08:27:39.446Z,1029.93
2019-03-21T08:28:39.399Z,1029.91
2019-03-21T08:29:39.355Z,1029.93
2019-03-21T08:30:39.312Z,1029.94
2019-03-21T08:31:39.259Z,1029.98
2019-03-21T08:32:39.218Z,1029.97
2019-03-21T08:33:39.164Z,1029.95
2019-03-21T08:34:39.118Z,1029.99
2019-03-21T08:35:39.070Z,1029.96
2019-03-21T08:36:39.024Z,1029.97
2019-03-21T08:37:38.975Z,1029.95
2019-03-21T08:38:38.928Z,1029.97
2019-03-21T08:39:38.884Z,1029.97
2019-03-21T08:40:38.834Z,1029.99
2019-03-21T08:41:38.787Z,1029.94
2019-03-21T08:42:38.740Z,1030.01
2019-03-21T08:43:38.693Z,1030.03
2019-03-21T08:44:38.647Z,1030.03
2019-03-21T08:45:38.598Z,1029.98
2019-03-21T08:46:38.552Z,1029.98
2019-03-21T08:47:38.505Z,1030.04
2019-03-21T08:48:38.458Z,1030.00
2019-03-21T08:49:38.446Z,1030.01
2019-03-21T08:50:38.362Z,1030.01
2019-03-21T08:51:38.320Z,1029.99
2019-03-21T08:52:38.270Z,1030.02
2019-03-21T08:53:38.225Z,1030.01
2019-03-21T08:54:38.175Z,1030.02
2019-03-21T08:55:38.130Z,1030.01
2019-03-21T08:56:38.081Z,1030.00
2019-03-21T08:57:38.032Z,1029.97
2019-03-21T08:58:37.985Z,1030.00
2019-03-21T08:59:37.941Z,1029.97
2019-03-21T09:00:37.893Z,1030.03
2019-03-21T09:01:37.844Z,1030.04
2019-03-21T09:02:37.798Z,1030.02
2019-03-21T09:03:37.750Z,1030.04
2019-03-21T09:04:37.703Z,1030.07
2019-03-21T09:05:37.655Z,1030.10
2019-03-21T09:06:37.610Z,1030.07
2019-03-21T09:07:37.563Z,1030.07
2019-03-21T09:08:37.516Z,1030.05
2019-03-21T09:09:37.468Z,1030.04
2019-03-21T09:10:37.422Z,1030.02
2019-03-21T09:11:37.374Z,1030.04
2019-03-21T09:12:37.326Z,1030.02
2019-03-21T09:13:37.279Z,1030.03
2019-03-21T09:14:37.233Z,1030.03
2019-03-21T09:15:37.191Z,1030.02
2019-03-21T09:16:37.139Z,1030.00
2019-03-21T09:17:37.091Z,1030.06
2019-03-21T09:18:37.043Z,1030.07
2019-03-21T09:19:36.996Z,1030.03
2019-03-21T09:20:37.053Z,1030.09
2019-03-21T09:21:36.903Z,1030.05
2019-03-21T09:22:36.855Z,1030.05
2019-03-21T09:23:36.810Z,1030.06
2019-03-21T09:24:36.762Z,1030.05
2019-03-21T09:25:36.715Z,1030.02
2019-03-21T09:26:36.670Z,1030.05
2019-03-21T09:27:36.621Z,1030.03
2019-03-21T09:28:36.574Z,1030.00
2019-03-21T09:29:36.553Z,1030.02
2019-03-21T09:30:36.479Z,1030.03
2019-03-21T09:31:36.433Z,1030.00
2019-03-21T09:32:36.386Z,1030.01
2019-03-21T09:33:36.338Z,1029.99
2019-03-21T09:34:36.297Z,1030.07
2019-03-21T09:35:36.250Z,1030.00
2019-03-21T09:36:36.197Z,1030.00
2019-03-21T09:37:36.149Z,1030.03
2019-03-21T09:38:36.102Z,1029.99
2019-03-21T09:39:36.056Z,1030.01
2019-03-21T09:40:36.009Z,1030.01
2019-03-21T09:41:35.960Z,1029.98
2019-03-21T09:42:35.914Z,1029.99
2019-03-21T09:43:35.867Z,1029.97
2019-03-21T09:44:35.821Z,1029.96
2019-03-21T09:45:35.775Z,1029.98
2019-03-21T09:46:35.791Z,1029.95
2019-03-21T09:47:35.687Z,1029.93
2019-03-21T09:48:35.633Z,1029.93
2019-03-21T09:49:35.585Z,1029.92
2019-03-21T09:50:35.538Z,1029.89
2019-03-21T09:51:35.492Z,1029.95
2019-03-21T09:52:35.444Z,1029.89
2019-03-21T09:53:35.398Z,1029.93
2019-03-21T09:54:35.350Z,1029.94
2019-03-21T09:55:35.305Z,1029.93
2019-03-21T09:56:35.315Z,1029.92
2019-03-21T09:57:35.209Z,1029.93
2019-03-21T09:58:35.162Z,1029.96
2019-03-21T09:59:35.117Z,1029.98
2019-03-21T10:00:35.070Z,1029.93
2019-03-21T10:01:35.020Z,1029.93
2019-03-21T10:02:35.023Z,1029.93
2019-03-21T10:03:34.977Z,1029.95
2019-03-21T10:04:34.880Z,1029.89
2019-03-21T10:05:34.831Z,1029.88
2019-03-21T10:06:34.853Z,1029.83
2019-03-21T10:07:34.739Z,1029.84
2019-03-21T10:08:34.692Z,1029.86
2019-03-21T10:09:34.644Z,1029.81
2019-03-21T10:10:34.598Z,1029.87
2019-03-21T10:11:34.551Z,1029.88
2019-03-21T10:12:34.502Z,1029.87
2019-03-21T10:13:34.456Z,1029.86
2019-03-21T10:14:34.409Z,1029.86
2019-03-21T10:15:34.367Z,1029.85
2019-03-21T10:16:34.319Z,1029.88
2019-03-21T10:17:34.268Z,1029.88
2019-03-21T10:18:34.220Z,1029.89
2019-03-21T10:19:34.175Z,1029.89
2019-03-21T10:20:34.128Z,1029.85
2019-03-21T10:21:42.822Z,1029.92
2019-03-21T10:22:34.033Z,1029.89
2019-03-21T10:23:33.990Z,1029.86
2019-03-21T10:24:33.940Z,1029.85
2019-03-21T10:25:33.892Z,1029.87
2019-03-21T10:26:33.846Z,1029.88
2019-03-21T10:27:33.807Z,1029.87
2019-03-21T10:28:33.752Z,1029.87
2019-03-21T10:29:33.724Z,1029.87
2019-03-21T10:30:33.656Z,1029.92
2019-03-21T10:31:33.610Z,1029.91
2019-03-21T10:32:33.564Z,1029.90
2019-03-21T10:33:33.521Z,1029.91
2019-03-21T10:34:33.468Z,1029.92
2019-03-21T10:35:33.422Z,1029.87
2019-03-21T10:36:33.374Z,1029.87
2019-03-21T10:37:33.327Z,1029.91
2019-03-21T10:38:33.281Z,1029.87
2019-03-21T10:39:33.234Z,1029.81
2019-03-21T10:40:33.187Z,1029.84
2019-03-21T10:41:33.141Z,1029.86
2019-03-21T10:42:33.092Z,1029.92
2019-03-21T10:43:33.046Z,1029.83
2019-03-21T10:44:33.000Z,1029.89
2019-03-21T10:45:32.953Z,1029.87
2019-03-21T10:46:32.910Z,1029.84
2019-03-21T10:47:32.859Z,1029.84
2019-03-21T10:48:32.811Z,1029.88
2019-03-21T10:49:32.764Z,1029.88
2019-03-21T10:50:32.717Z,1029.87
2019-03-21T10:51:32.671Z,1029.85
2019-03-21T10:52:32.624Z,1029.86
2019-03-21T10:53:32.575Z,1029.82
2019-03-21T10:54:32.530Z,1029.84
2019-03-21T10:55:32.486Z,1029.80
2019-03-21T10:56:32.435Z,1029.81
2019-03-21T10:57:32.389Z,1029.82
2019-03-21T10:58:32.340Z,1029.81
2019-03-21T10:59:32.295Z,1029.80
2019-03-21T11:00:32.248Z,1029.80
2019-03-21T11:01:32.200Z,1029.83
2019-03-21T11:02:32.154Z,1029.79
2019-03-21T11:03:32.109Z,1029.81
2019-03-21T11:04:32.062Z,1029.81
2019-03-21T11:05:32.018Z,1029.84
2019-03-21T11:06:31.966Z,1029.80
2019-03-21T11:07:31.919Z,1029.80
2019-03-21T11:08:31.881Z,1029.80
2019-03-21T11:09:31.826Z,1029.80
2019-03-21T11:10:31.781Z,1029.77
2019-03-21T11:11:31.732Z,1029.76
2019-03-21T11:12:31.683Z,1029.76
2019-03-21T11:13:31.637Z,1029.81
2019-03-21T11:14:31.635Z,1029.82
2019-03-21T11:15:31.544Z,1029.81
2019-03-21T11:16:31.668Z,1029.83
2019-03-21T11:17:31.450Z,1029.83
2019-03-21T11:18:36.014Z,1029.78
2019-03-21T11:19:31.355Z,1029.77
2019-03-21T11:20:31.310Z,1029.77
2019-03-21T11:21:31.261Z,1029.76
2019-03-21T11:22:31.215Z,1029.70
2019-03-21T11:23:31.173Z,1029.70
2019-03-21T11:24:31.123Z,1029.68
2019-03-21T11:25:31.076Z,1029.66
2019-03-21T11:26:31.029Z,1029.67
2019-03-21T11:27:30.993Z,1029.64
2019-03-21T11:28:30.984Z,1029.61
2019-03-21T11:29:30.886Z,1029.62
2019-03-21T11:30:30.841Z,1029.62
2019-03-21T11:31:30.849Z,1029.62
2019-03-21T11:32:30.746Z,1029.61
2019-03-21T11:33:30.704Z,1029.61
2019-03-21T11:34:30.651Z,1029.59
2019-03-21T11:35:30.606Z,1029.62
2019-03-21T11:36:38.173Z,1029.57
2019-03-21T11:37:30.510Z,1029.57
2019-03-21T11:38:30.463Z,1029.56
2019-03-21T11:39:30.417Z,1029.59
2019-03-21T11:40:30.378Z,1029.55
2019-03-21T11:41:30.325Z,1029.52
2019-03-21T11:42:30.289Z,1029.52
2019-03-21T11:43:30.235Z,1029.51
2019-03-21T11:44:30.183Z,1029.49
2019-03-21T11:45:30.136Z,1029.50
2019-03-21T11:46:30.097Z,1029.48
2019-03-21T11:47:41.101Z,1029.50
2019-03-21T11:48:30.045Z,1029.49
2019-03-21T11:49:29.998Z,1029.49
2019-03-21T11:50:29.914Z,1029.54
2019-03-21T11:51:29.857Z,1029.56
2019-03-21T11:52:29.811Z,1029.54
2019-03-21T11:53:29.760Z,1029.53
2019-03-21T11:54:29.712Z,1029.53
2019-03-21T11:55:29.667Z,1029.53
2019-03-21T11:56:29.624Z,1029.54
2019-03-21T11:57:29.572Z,1029.53
2019-03-21T11:58:29.525Z,1029.55
2019-03-21T11:59:46.158Z,1029.54
2019-03-21T12:00:29.436Z,1029.48
2019-03-21T12:01:29.386Z,1029.47
2019-03-21T12:02:29.337Z,1029.48
2019-03-21T12:03:29.297Z,1029.46
2019-03-21T12:04:29.244Z,1029.45